Delavan, Minnesota
Current Conditions -  °F | °C
As of 4:35 AM on Wednesday 22 Oct 2014 (Local Time) from KFRM Reporting Station
Clear Clear  
Wind Chill: 35°   Ceiling: Unl
Heat Index: 43°   Visibility: 10mi
Dew Point: 34°   Wind: 18mph
Humidity: 70%   Direction: 150°SSE
Pressure: 30.14"   Gusts: NA
Location:  43.77°N, 94.02°W
Report Text: KFRM 220935Z AUTO 15016KT 10SM CLR 06/01 A3014 RMK AO1
Loading
Personal Weather Stations






























Interactive Weather Map
Tropical Storm Tracking
New forecast layout! Learn more

10-Day Weather Forecast

Advertisements
Track Severe Weather on mobile